Airport View

Enter AWOS ICAO identifier for current METAR.

ex. KFNL

KRME 191853Z 00000KT 10SM SCT080 27/16 A2977 RMK AO2 SLP075 T02670161 $

19 Jun 2019 19:07

Phone: 315-337-0379

Other Area AWOS: KSYR - KFZY - KNY0 - K6B9

TAF KRME 191742Z 1918/2018 VRB03KT P6SM BKN050 FM200700 10004KT P6SM BKN025 FM200900 10003KT 4SM BR BKN015 FM201100 VRB04KT 3SM RA BR BKN006 OVC012